sensor_id;sensor_type;location;lat;lon;timestamp;pressure;altitude;pressure_sealevel;temperature;humidity
64228;BME280;50546;49.146;10.616;2022-09-12T00:01:42;96533.09;;;13.94;78.52
64228;BME280;50546;49.146;10.616;2022-09-12T00:04:09;96525.25;;;14.01;78.01
64228;BME280;50546;49.146;10.616;2022-09-12T00:06:36;96524.59;;;14.04;76.70
64228;BME280;50546;49.146;10.616;2022-09-12T00:09:08;96527.94;;;14.01;76.71
64228;BME280;50546;49.146;10.616;2022-09-12T00:11:35;96519.94;;;14.05;76.67
64228;BME280;50546;49.146;10.616;2022-09-12T00:14:02;96515.00;;;14.07;76.40
64228;BME280;50546;49.146;10.616;2022-09-12T00:16:29;96515.38;;;13.84;77.50
64228;BME280;50546;49.146;10.616;2022-09-12T00:18:55;96517.47;;;13.79;77.35
64228;BME280;50546;49.146;10.616;2022-09-12T00:21:21;96509.75;;;13.68;77.30
64228;BME280;50546;49.146;10.616;2022-09-12T00:23:47;96509.16;;;13.63;77.84
64228;BME280;50546;49.146;10.616;2022-09-12T00:26:13;96516.03;;;13.60;77.20
64228;BME280;50546;49.146;10.616;2022-09-12T00:28:40;96521.03;;;13.49;78.12
64228;BME280;50546;49.146;10.616;2022-09-12T00:31:08;96515.22;;;13.39;77.76
64228;BME280;50546;49.146;10.616;2022-09-12T00:33:35;96510.47;;;13.36;78.06
64228;BME280;50546;49.146;10.616;2022-09-12T00:36:05;96519.53;;;13.40;77.86
64228;BME280;50546;49.146;10.616;2022-09-12T00:38:31;96523.59;;;13.16;78.68
64228;BME280;50546;49.146;10.616;2022-09-12T00:40:56;96512.91;;;13.20;78.25
64228;BME280;50546;49.146;10.616;2022-09-12T00:46:00;96512.06;;;13.07;79.03
64228;BME280;50546;49.146;10.616;2022-09-12T00:48:38;96510.06;;;13.16;78.80
64228;BME280;50546;49.146;10.616;2022-09-12T00:51:05;96503.66;;;13.30;78.41
64228;BME280;50546;49.146;10.616;2022-09-12T00:53:30;96502.19;;;13.32;78.44
64228;BME280;50546;49.146;10.616;2022-09-12T00:55:56;96498.97;;;13.39;78.08
64228;BME280;50546;49.146;10.616;2022-09-12T00:58:35;96492.25;;;13.45;77.71
64228;BME280;50546;49.146;10.616;2022-09-12T01:01:03;96488.81;;;13.36;77.54
64228;BME280;50546;49.146;10.616;2022-09-12T01:03:28;96486.78;;;13.33;77.17
64228;BME280;50546;49.146;10.616;2022-09-12T01:06:07;96483.88;;;13.38;76.52
64228;BME280;50546;49.146;10.616;2022-09-12T01:08:36;96475.75;;;13.38;76.75
64228;BME280;50546;49.146;10.616;2022-09-12T01:11:04;96476.69;;;13.42;76.94
64228;BME280;50546;49.146;10.616;2022-09-12T01:13:31;96484.06;;;13.33;76.92
64228;BME280;50546;49.146;10.616;2022-09-12T01:15:56;96485.72;;;13.16;77.54
64228;BME280;50546;49.146;10.616;2022-09-12T01:18:30;96479.41;;;13.12;77.77
64228;BME280;50546;49.146;10.616;2022-09-12T01:21:08;96479.78;;;13.02;78.71
64228;BME280;50546;49.146;10.616;2022-09-12T01:23:53;96475.13;;;13.11;78.37
64228;BME280;50546;49.146;10.616;2022-09-12T01:29:06;96459.34;;;13.13;78.07
64228;BME280;50546;49.146;10.616;2022-09-12T01:31:48;96459.78;;;13.24;77.65
64228;BME280;50546;49.146;10.616;2022-09-12T01:37:16;96462.50;;;13.15;77.04
64228;BME280;50546;49.146;10.616;2022-09-12T01:39:59;96465.31;;;12.98;78.64
64228;BME280;50546;49.146;10.616;2022-09-12T01:42:36;96460.28;;;12.88;79.07
64228;BME280;50546;49.146;10.616;2022-09-12T01:45:11;96464.28;;;12.82;78.76
64228;BME280;50546;49.146;10.616;2022-09-12T01:47:48;96458.72;;;12.78;78.52
64228;BME280;50546;49.146;10.616;2022-09-12T01:50:20;96465.13;;;12.73;78.51
64228;BME280;50546;49.146;10.616;2022-09-12T01:53:10;96467.88;;;12.65;78.81
64228;BME280;50546;49.146;10.616;2022-09-12T01:55:44;96468.38;;;12.58;79.49
64228;BME280;50546;49.146;10.616;2022-09-12T01:58:14;96461.56;;;12.52;79.45
64228;BME280;50546;49.146;10.616;2022-09-12T02:01:21;96457.94;;;12.48;79.46
64228;BME280;50546;49.146;10.616;2022-09-12T02:03:51;96460.78;;;12.51;79.47
64228;BME280;50546;49.146;10.616;2022-09-12T02:06:22;96455.88;;;12.45;79.32
64228;BME280;50546;49.146;10.616;2022-09-12T02:09:02;96459.75;;;12.26;79.68
64228;BME280;50546;49.146;10.616;2022-09-12T02:11:32;96463.09;;;12.23;79.72
64228;BME280;50546;49.146;10.616;2022-09-12T02:14:03;96454.84;;;12.20;79.88
64228;BME280;50546;49.146;10.616;2022-09-12T02:16:43;96453.25;;;12.19;79.76
64228;BME280;50546;49.146;10.616;2022-09-12T02:19:19;96447.50;;;12.29;78.76
64228;BME280;50546;49.146;10.616;2022-09-12T02:21:55;96445.44;;;12.26;78.84
64228;BME280;50546;49.146;10.616;2022-09-12T02:24:27;96441.81;;;12.22;79.03
64228;BME280;50546;49.146;10.616;2022-09-12T02:27:02;96440.88;;;12.18;79.12
64228;BME280;50546;49.146;10.616;2022-09-12T02:29:29;96451.03;;;12.12;79.14
64228;BME280;50546;49.146;10.616;2022-09-12T02:31:58;96439.78;;;12.10;79.01
64228;BME280;50546;49.146;10.616;2022-09-12T02:37:20;96441.38;;;12.11;79.26
64228;BME280;50546;49.146;10.616;2022-09-12T02:39:49;96432.22;;;11.95;79.35
64228;BME280;50546;49.146;10.616;2022-09-12T02:42:15;96430.94;;;11.84;79.80
64228;BME280;50546;49.146;10.616;2022-09-12T02:44:40;96426.81;;;11.77;79.57
64228;BME280;50546;49.146;10.616;2022-09-12T02:47:33;96431.25;;;11.73;79.15
64228;BME280;50546;49.146;10.616;2022-09-12T02:50:01;96436.03;;;11.59;79.63
64228;BME280;50546;49.146;10.616;2022-09-12T02:52:27;96431.91;;;11.70;79.40
64228;BME280;50546;49.146;10.616;2022-09-12T02:54:54;96433.34;;;11.76;79.64
64228;BME280;50546;49.146;10.616;2022-09-12T02:57:20;96435.22;;;11.76;79.47
64228;BME280;50546;49.146;10.616;2022-09-12T02:59:47;96432.53;;;11.67;79.60
64228;BME280;50546;49.146;10.616;2022-09-12T03:02:29;96434.91;;;11.69;79.90
64228;BME280;50546;49.146;10.616;2022-09-12T03:07:50;96437.13;;;11.93;79.65
64228;BME280;50546;49.146;10.616;2022-09-12T03:16:07;96436.97;;;11.80;80.12
64228;BME280;50546;49.146;10.616;2022-09-12T03:18:40;96433.34;;;11.85;79.43
64228;BME280;50546;49.146;10.616;2022-09-12T03:21:21;96437.44;;;11.74;79.49
64228;BME280;50546;49.146;10.616;2022-09-12T03:24:08;96441.41;;;11.68;79.65
64228;BME280;50546;49.146;10.616;2022-09-12T03:26:41;96434.44;;;11.58;80.56
64228;BME280;50546;49.146;10.616;2022-09-12T03:29:09;96439.84;;;11.58;80.33
64228;BME280;50546;49.146;10.616;2022-09-12T03:31:36;96428.44;;;11.44;81.28
64228;BME280;50546;49.146;10.616;2022-09-12T03:34:03;96438.75;;;11.42;81.61
64228;BME280;50546;49.146;10.616;2022-09-12T03:36:29;96429.88;;;11.41;81.61
64228;BME280;50546;49.146;10.616;2022-09-12T03:38:55;96430.50;;;11.38;81.12
64228;BME280;50546;49.146;10.616;2022-09-12T03:41:21;96436.06;;;11.33;81.47
64228;BME280;50546;49.146;10.616;2022-09-12T03:43:46;96426.34;;;11.32;81.48
64228;BME280;50546;49.146;10.616;2022-09-12T03:46:12;96429.53;;;11.34;80.94
64228;BME280;50546;49.146;10.616;2022-09-12T03:48:39;96430.16;;;11.40;81.06
64228;BME280;50546;49.146;10.616;2022-09-12T03:51:07;96430.97;;;11.49;79.87
64228;BME280;50546;49.146;10.616;2022-09-12T03:53:33;96431.28;;;11.30;80.47
64228;BME280;50546;49.146;10.616;2022-09-12T03:56:00;96431.13;;;11.35;80.30
64228;BME280;50546;49.146;10.616;2022-09-12T03:58:29;96428.75;;;11.42;80.18
64228;BME280;50546;49.146;10.616;2022-09-12T04:00:55;96431.28;;;11.56;80.31
64228;BME280;50546;49.146;10.616;2022-09-12T04:03:20;96427.94;;;11.59;80.11
64228;BME280;50546;49.146;10.616;2022-09-12T04:05:45;96424.94;;;11.69;79.44
64228;BME280;50546;49.146;10.616;2022-09-12T04:08:11;96425.69;;;11.78;78.69
64228;BME280;50546;49.146;10.616;2022-09-12T04:10:36;96429.97;;;11.79;78.75
64228;BME280;50546;49.146;10.616;2022-09-12T04:13:02;96427.78;;;11.64;78.52
64228;BME280;50546;49.146;10.616;2022-09-12T04:15:27;96424.94;;;11.52;78.56
64228;BME280;50546;49.146;10.616;2022-09-12T04:17:52;96423.03;;;11.44;79.21
64228;BME280;50546;49.146;10.616;2022-09-12T04:20:17;96429.06;;;11.41;78.87
64228;BME280;50546;49.146;10.616;2022-09-12T04:22:43;96431.75;;;11.23;79.49
64228;BME280;50546;49.146;10.616;2022-09-12T04:25:08;96436.66;;;11.21;79.74
64228;BME280;50546;49.146;10.616;2022-09-12T04:27:34;96427.00;;;11.20;78.83
64228;BME280;50546;49.146;10.616;2022-09-12T04:29:59;96430.19;;;11.31;79.47
64228;BME280;50546;49.146;10.616;2022-09-12T04:32:26;96424.16;;;11.34;79.52
64228;BME280;50546;49.146;10.616;2022-09-12T04:34:51;96424.63;;;11.45;79.25
64228;BME280;50546;49.146;10.616;2022-09-12T04:37:17;96421.13;;;11.53;79.43
64228;BME280;50546;49.146;10.616;2022-09-12T04:39:42;96422.56;;;11.42;78.59
64228;BME280;50546;49.146;10.616;2022-09-12T04:42:08;96426.19;;;11.28;79.59
64228;BME280;50546;49.146;10.616;2022-09-12T04:44:33;96424.94;;;11.26;79.47
64228;BME280;50546;49.146;10.616;2022-09-12T04:46:58;96426.03;;;11.25;79.83
64228;BME280;50546;49.146;10.616;2022-09-12T04:49:23;96425.72;;;11.18;80.05
64228;BME280;50546;49.146;10.616;2022-09-12T04:51:51;96418.41;;;11.18;79.23
64228;BME280;50546;49.146;10.616;2022-09-12T04:54:18;96419.53;;;11.17;79.18
64228;BME280;50546;49.146;10.616;2022-09-12T04:56:45;96432.41;;;11.12;80.04
64228;BME280;50546;49.146;10.616;2022-09-12T04:59:14;96430.47;;;11.03;79.61
64228;BME280;50546;49.146;10.616;2022-09-12T05:01:40;96435.53;;;10.96;80.41
64228;BME280;50546;49.146;10.616;2022-09-12T05:04:06;96434.72;;;10.96;81.38
64228;BME280;50546;49.146;10.616;2022-09-12T05:06:34;96434.09;;;10.99;81.24
64228;BME280;50546;49.146;10.616;2022-09-12T05:09:00;96428.72;;;10.99;81.25
64228;BME280;50546;49.146;10.616;2022-09-12T05:11:44;96440.63;;;10.98;82.05
64228;BME280;50546;49.146;10.616;2022-09-12T05:14:10;96440.16;;;11.04;81.58
64228;BME280;50546;49.146;10.616;2022-09-12T05:16:35;96436.84;;;11.07;81.16
64228;BME280;50546;49.146;10.616;2022-09-12T05:19:01;96441.41;;;11.07;82.18
64228;BME280;50546;49.146;10.616;2022-09-12T05:21:26;96444.59;;;11.09;81.74
64228;BME280;50546;49.146;10.616;2022-09-12T05:23:54;96443.66;;;11.22;81.73
64228;BME280;50546;49.146;10.616;2022-09-12T05:26:20;96438.44;;;11.35;80.89
64228;BME280;50546;49.146;10.616;2022-09-12T05:28:47;96436.50;;;11.35;79.62
64228;BME280;50546;49.146;10.616;2022-09-12T05:31:16;96438.09;;;11.36;80.23
64228;BME280;50546;49.146;10.616;2022-09-12T05:33:44;96445.88;;;11.20;79.87
64228;BME280;50546;49.146;10.616;2022-09-12T05:36:12;96444.09;;;11.07;80.78
64228;BME280;50546;49.146;10.616;2022-09-12T05:38:38;96451.91;;;11.08;80.70
64228;BME280;50546;49.146;10.616;2022-09-12T05:41:10;96449.84;;;11.23;79.65
64228;BME280;50546;49.146;10.616;2022-09-12T05:43:38;96453.00;;;11.07;80.61
64228;BME280;50546;49.146;10.616;2022-09-12T05:46:05;96451.56;;;11.10;80.09
64228;BME280;50546;49.146;10.616;2022-09-12T05:48:35;96457.44;;;11.21;80.06
64228;BME280;50546;49.146;10.616;2022-09-12T05:51:18;96454.28;;;11.27;79.97
64228;BME280;50546;49.146;10.616;2022-09-12T05:53:46;96459.38;;;11.46;79.25
64228;BME280;50546;49.146;10.616;2022-09-12T05:56:15;96456.97;;;11.53;78.77
64228;BME280;50546;49.146;10.616;2022-09-12T05:58:43;96454.28;;;11.53;78.85
64228;BME280;50546;49.146;10.616;2022-09-12T06:01:11;96454.13;;;11.50;79.36
64228;BME280;50546;49.146;10.616;2022-09-12T06:03:45;96457.94;;;11.49;79.53
64228;BME280;50546;49.146;10.616;2022-09-12T06:06:11;96453.50;;;11.53;79.48
64228;BME280;50546;49.146;10.616;2022-09-12T06:08:44;96469.06;;;11.56;79.78
64228;BME280;50546;49.146;10.616;2022-09-12T06:11:13;96463.03;;;11.59;79.33
64228;BME280;50546;49.146;10.616;2022-09-12T06:13:40;96462.56;;;11.66;79.36
64228;BME280;50546;49.146;10.616;2022-09-12T06:16:11;96457.13;;;11.74;79.23
64228;BME280;50546;49.146;10.616;2022-09-12T06:18:37;96461.56;;;11.79;78.96
64228;BME280;50546;49.146;10.616;2022-09-12T06:23:29;96462.50;;;11.83;79.55
64228;BME280;50546;49.146;10.616;2022-09-12T06:25:54;96456.19;;;11.88;79.74
64228;BME280;50546;49.146;10.616;2022-09-12T06:28:19;96456.19;;;11.96;79.33
64228;BME280;50546;49.146;10.616;2022-09-12T06:30:45;96455.34;;;12.04;78.91
64228;BME280;50546;49.146;10.616;2022-09-12T06:33:10;96454.34;;;12.26;78.77
64228;BME280;50546;49.146;10.616;2022-09-12T06:35:36;96460.81;;;12.34;78.49
64228;BME280;50546;49.146;10.616;2022-09-12T06:38:02;96458.41;;;12.41;78.22
64228;BME280;50546;49.146;10.616;2022-09-12T06:40:27;96463.03;;;12.49;78.45
64228;BME280;50546;49.146;10.616;2022-09-12T06:42:53;96456.28;;;12.64;78.05
64228;BME280;50546;49.146;10.616;2022-09-12T06:45:19;96454.13;;;12.79;77.98
64228;BME280;50546;49.146;10.616;2022-09-12T06:47:44;96458.09;;;12.81;77.46
64228;BME280;50546;49.146;10.616;2022-09-12T06:50:10;96451.53;;;12.91;77.11
64228;BME280;50546;49.146;10.616;2022-09-12T06:52:35;96451.78;;;12.98;77.31
64228;BME280;50546;49.146;10.616;2022-09-12T06:55:00;96451.53;;;12.91;77.92
64228;BME280;50546;49.146;10.616;2022-09-12T06:57:26;96449.94;;;12.90;77.58
64228;BME280;50546;49.146;10.616;2022-09-12T06:59:54;96445.19;;;12.87;78.05
64228;BME280;50546;49.146;10.616;2022-09-12T07:02:20;96445.94;;;13.17;78.31
64228;BME280;50546;49.146;10.616;2022-09-12T07:04:45;96444.84;;;13.39;77.99
64228;BME280;50546;49.146;10.616;2022-09-12T07:07:11;96453.38;;;13.49;77.02
64228;BME280;50546;49.146;10.616;2022-09-12T07:09:36;96448.88;;;13.54;77.10
64228;BME280;50546;49.146;10.616;2022-09-12T07:12:02;96449.53;;;13.71;76.55
64228;BME280;50546;49.146;10.616;2022-09-12T07:14:28;96442.31;;;13.76;76.89
64228;BME280;50546;49.146;10.616;2022-09-12T07:16:53;96436.75;;;13.93;77.21
64228;BME280;50546;49.146;10.616;2022-09-12T07:19:19;96439.78;;;13.91;76.94
64228;BME280;50546;49.146;10.616;2022-09-12T07:21:44;96438.78;;;13.96;77.64
64228;BME280;50546;49.146;10.616;2022-09-12T07:24:09;96442.03;;;13.89;78.17
64228;BME280;50546;49.146;10.616;2022-09-12T07:26:35;96445.34;;;13.95;78.63
64228;BME280;50546;49.146;10.616;2022-09-12T07:29:00;96448.59;;;14.01;79.01
64228;BME280;50546;49.146;10.616;2022-09-12T07:31:26;96444.63;;;14.43;77.66
64228;BME280;50546;49.146;10.616;2022-09-12T07:33:52;96441.50;;;14.66;77.27
64228;BME280;50546;49.146;10.616;2022-09-12T07:36:20;96444.34;;;14.94;75.92
64228;BME280;50546;49.146;10.616;2022-09-12T07:38:46;96443.19;;;15.07;75.39
64228;BME280;50546;49.146;10.616;2022-09-12T07:41:19;96442.06;;;15.08;75.10
64228;BME280;50546;49.146;10.616;2022-09-12T07:43:46;96444.31;;;15.19;75.02
64228;BME280;50546;49.146;10.616;2022-09-12T07:46:11;96442.50;;;15.23;76.05
64228;BME280;50546;49.146;10.616;2022-09-12T07:48:37;96439.06;;;15.38;76.04
64228;BME280;50546;49.146;10.616;2022-09-12T07:51:05;96453.13;;;15.68;74.92
64228;BME280;50546;49.146;10.616;2022-09-12T07:53:39;96446.97;;;15.83;75.44
64228;BME280;50546;49.146;10.616;2022-09-12T07:56:05;96451.75;;;16.02;75.16
64228;BME280;50546;49.146;10.616;2022-09-12T07:58:33;96450.44;;;16.12;74.24
64228;BME280;50546;49.146;10.616;2022-09-12T08:03:39;96448.72;;;16.51;73.56
64228;BME280;50546;49.146;10.616;2022-09-12T08:08:34;96450.41;;;16.72;73.61
64228;BME280;50546;49.146;10.616;2022-09-12T08:11:02;96451.38;;;16.95;73.83
64228;BME280;50546;49.146;10.616;2022-09-12T08:13:28;96450.56;;;17.11;73.19
64228;BME280;50546;49.146;10.616;2022-09-12T08:16:05;96440.97;;;17.17;72.94
64228;BME280;50546;49.146;10.616;2022-09-12T08:18:31;96444.94;;;17.39;73.28
64228;BME280;50546;49.146;10.616;2022-09-12T08:20:57;96450.78;;;17.56;73.59
64228;BME280;50546;49.146;10.616;2022-09-12T08:23:23;96446.56;;;17.78;73.55
64228;BME280;50546;49.146;10.616;2022-09-12T08:25:49;96446.94;;;17.96;72.83
64228;BME280;50546;49.146;10.616;2022-09-12T08:28:14;96447.78;;;18.00;72.58
64228;BME280;50546;49.146;10.616;2022-09-12T08:30:39;96445.84;;;18.01;73.07
64228;BME280;50546;49.146;10.616;2022-09-12T08:33:05;96454.09;;;18.04;76.02
64228;BME280;50546;49.146;10.616;2022-09-12T08:35:31;96451.72;;;18.45;73.77
64228;BME280;50546;49.146;10.616;2022-09-12T08:37:57;96440.63;;;18.35;71.92
64228;BME280;50546;49.146;10.616;2022-09-12T08:40:22;96451.22;;;18.17;73.58
64228;BME280;50546;49.146;10.616;2022-09-12T08:42:58;96447.78;;;18.66;74.91
64228;BME280;50546;49.146;10.616;2022-09-12T08:45:35;96443.97;;;18.93;71.97
64228;BME280;50546;49.146;10.616;2022-09-12T08:48:08;96447.25;;;19.06;70.95
64228;BME280;50546;49.146;10.616;2022-09-12T08:50:35;96452.81;;;18.87;71.63
64228;BME280;50546;49.146;10.616;2022-09-12T08:57:55;96440.44;;;19.49;69.37
64228;BME280;50546;49.146;10.616;2022-09-12T09:00:21;96430.97;;;19.40;69.70
64228;BME280;50546;49.146;10.616;2022-09-12T09:03:08;96435.28;;;19.41;68.78
64228;BME280;50546;49.146;10.616;2022-09-12T09:05:50;96438.81;;;19.15;69.52
64228;BME280;50546;49.146;10.616;2022-09-12T09:17:17;96438.78;;;19.11;70.03
64228;BME280;50546;49.146;10.616;2022-09-12T09:19:49;96433.81;;;19.47;68.75
64228;BME280;50546;49.146;10.616;2022-09-12T09:22:35;96433.28;;;19.68;67.88
64228;BME280;50546;49.146;10.616;2022-09-12T09:25:35;96428.34;;;19.77;66.99
64228;BME280;50546;49.146;10.616;2022-09-12T09:28:02;96433.84;;;19.51;67.63
64228;BME280;50546;49.146;10.616;2022-09-12T09:30:29;96424.78;;;19.16;68.64
64228;BME280;50546;49.146;10.616;2022-09-12T09:32:58;96420.97;;;19.21;69.10
64228;BME280;50546;49.146;10.616;2022-09-12T09:35:43;96415.63;;;19.92;68.10
64228;BME280;50546;49.146;10.616;2022-09-12T09:38:27;96419.91;;;20.27;66.38
64228;BME280;50546;49.146;10.616;2022-09-12T09:43:38;96418.28;;;21.14;63.53
64228;BME280;50546;49.146;10.616;2022-09-12T09:46:04;96410.00;;;21.07;62.29
64228;BME280;50546;49.146;10.616;2022-09-12T09:48:35;96405.97;;;21.53;62.31
64228;BME280;50546;49.146;10.616;2022-09-12T09:51:03;96405.66;;;21.72;60.14
64228;BME280;50546;49.146;10.616;2022-09-12T09:53:51;96412.31;;;21.78;60.08
64228;BME280;50546;49.146;10.616;2022-09-12T09:56:31;96411.63;;;22.03;56.01
64228;BME280;50546;49.146;10.616;2022-09-12T09:59:25;96407.81;;;22.54;54.91
64228;BME280;50546;49.146;10.616;2022-09-12T10:01:56;96413.31;;;22.47;55.66
64228;BME280;50546;49.146;10.616;2022-09-12T10:04:30;96414.06;;;22.26;54.97
64228;BME280;50546;49.146;10.616;2022-09-12T10:06:59;96405.03;;;22.22;54.82
64228;BME280;50546;49.146;10.616;2022-09-12T10:09:30;96404.69;;;22.45;54.82
64228;BME280;50546;49.146;10.616;2022-09-12T10:11:58;96411.69;;;22.21;55.97
64228;BME280;50546;49.146;10.616;2022-09-12T10:14:31;96404.66;;;22.23;56.81
64228;BME280;50546;49.146;10.616;2022-09-12T10:16:59;96403.88;;;22.30;56.68
64228;BME280;50546;49.146;10.616;2022-09-12T10:19:36;96401.97;;;22.73;56.80
64228;BME280;50546;49.146;10.616;2022-09-12T10:22:03;96404.28;;;22.86;55.19
64228;BME280;50546;49.146;10.616;2022-09-12T10:24:41;96398.81;;;22.78;53.56
64228;BME280;50546;49.146;10.616;2022-09-12T10:30:00;96396.84;;;22.82;54.26
64228;BME280;50546;49.146;10.616;2022-09-12T10:32:35;96393.31;;;22.82;52.48
64228;BME280;50546;49.146;10.616;2022-09-12T10:37:50;96398.38;;;23.23;54.07
64228;BME280;50546;49.146;10.616;2022-09-12T10:40:41;96398.41;;;23.01;53.56
64228;BME280;50546;49.146;10.616;2022-09-12T10:43:23;96396.03;;;23.18;55.36
64228;BME280;50546;49.146;10.616;2022-09-12T10:45:50;96395.94;;;23.57;53.52
64228;BME280;50546;49.146;10.616;2022-09-12T10:48:30;96401.84;;;23.48;49.95
64228;BME280;50546;49.146;10.616;2022-09-12T10:50:56;96396.81;;;23.25;51.36
64228;BME280;50546;49.146;10.616;2022-09-12T10:53:25;96398.38;;;23.16;53.46
64228;BME280;50546;49.146;10.616;2022-09-12T10:58:41;96400.00;;;22.77;52.89
64228;BME280;50546;49.146;10.616;2022-09-12T11:01:25;96386.94;;;23.46;51.37
64228;BME280;50546;49.146;10.616;2022-09-12T11:24:06;96376.09;;;24.61;50.45
64228;BME280;50546;49.146;10.616;2022-09-12T11:26:48;96373.22;;;24.71;49.58
64228;BME280;50546;49.146;10.616;2022-09-12T11:32:02;96369.97;;;23.62;48.92
64228;BME280;50546;49.146;10.616;2022-09-12T11:38:21;96376.34;;;23.34;50.73
64228;BME280;50546;49.146;10.616;2022-09-12T11:43:29;96360.63;;;23.38;51.63
64228;BME280;50546;49.146;10.616;2022-09-12T11:46:05;96359.00;;;23.51;48.62
64228;BME280;50546;49.146;10.616;2022-09-12T11:51:17;96352.88;;;22.86;49.84
64228;BME280;50546;49.146;10.616;2022-09-12T11:53:43;96356.78;;;23.06;48.93
64228;BME280;50546;49.146;10.616;2022-09-12T11:56:16;96353.38;;;23.83;48.14
64228;BME280;50546;49.146;10.616;2022-09-12T11:58:52;96355.63;;;24.02;48.21
64228;BME280;50546;49.146;10.616;2022-09-12T12:01:26;96354.66;;;24.31;46.65
64228;BME280;50546;49.146;10.616;2022-09-12T12:03:54;96352.00;;;23.36;48.18
64228;BME280;50546;49.146;10.616;2022-09-12T12:06:25;96345.69;;;23.46;47.86
64228;BME280;50546;49.146;10.616;2022-09-12T12:08:54;96338.84;;;24.38;48.42
64228;BME280;50546;49.146;10.616;2022-09-12T12:11:29;96340.41;;;24.43;47.69
64228;BME280;50546;49.146;10.616;2022-09-12T12:13:58;96338.78;;;23.93;48.75
64228;BME280;50546;49.146;10.616;2022-09-12T12:16:34;96341.13;;;23.95;51.13
64228;BME280;50546;49.146;10.616;2022-09-12T12:19:05;96330.19;;;23.81;50.10
64228;BME280;50546;49.146;10.616;2022-09-12T12:21:46;96341.97;;;24.47;50.18
64228;BME280;50546;49.146;10.616;2022-09-12T12:24:19;96330.34;;;24.18;50.94
64228;BME280;50546;49.146;10.616;2022-09-12T12:27:04;96335.72;;;24.33;48.21
64228;BME280;50546;49.146;10.616;2022-09-12T12:29:45;96334.28;;;24.17;50.03
64228;BME280;50546;49.146;10.616;2022-09-12T12:32:18;96332.06;;;23.94;49.42
64228;BME280;50546;49.146;10.616;2022-09-12T12:34:45;96330.72;;;24.20;49.58
64228;BME280;50546;49.146;10.616;2022-09-12T12:37:43;96326.25;;;24.44;49.97
64228;BME280;50546;49.146;10.616;2022-09-12T12:40:21;96317.25;;;24.82;50.00
64228;BME280;50546;49.146;10.616;2022-09-12T12:48:01;96314.53;;;23.70;47.00
64228;BME280;50546;49.146;10.616;2022-09-12T12:50:33;96301.34;;;23.29;48.08
64228;BME280;50546;49.146;10.616;2022-09-12T12:55:36;96307.72;;;22.94;48.73
64228;BME280;50546;49.146;10.616;2022-09-12T12:58:06;96313.66;;;22.57;48.78
64228;BME280;50546;49.146;10.616;2022-09-12T13:00:44;96305.75;;;23.02;49.74
64228;BME280;50546;49.146;10.616;2022-09-12T13:03:26;96300.47;;;23.47;49.32
64228;BME280;50546;49.146;10.616;2022-09-12T13:05:59;96293.41;;;23.46;48.39
64228;BME280;50546;49.146;10.616;2022-09-12T13:08:31;96300.16;;;24.08;48.38
64228;BME280;50546;49.146;10.616;2022-09-12T13:11:06;96297.38;;;24.11;47.03
64228;BME280;50546;49.146;10.616;2022-09-12T13:13:51;96290.56;;;23.67;49.94
64228;BME280;50546;49.146;10.616;2022-09-12T13:16:51;96292.00;;;23.90;48.20
64228;BME280;50546;49.146;10.616;2022-09-12T13:19:24;96288.97;;;24.25;46.40
64228;BME280;50546;49.146;10.616;2022-09-12T13:21:56;96294.34;;;24.43;46.34
64228;BME280;50546;49.146;10.616;2022-09-12T13:24:23;96288.91;;;23.81;47.29
64228;BME280;50546;49.146;10.616;2022-09-12T13:26:49;96290.16;;;23.69;46.77
64228;BME280;50546;49.146;10.616;2022-09-12T13:29:20;96284.09;;;23.95;47.61
64228;BME280;50546;49.146;10.616;2022-09-12T13:31:57;96297.56;;;24.35;47.81
64228;BME280;50546;49.146;10.616;2022-09-12T13:40:15;96271.31;;;26.48;41.09
64228;BME280;50546;49.146;10.616;2022-09-12T13:42:45;96272.09;;;25.98;41.59
64228;BME280;50546;49.146;10.616;2022-09-12T13:47:43;96267.88;;;25.90;39.64
64228;BME280;50546;49.146;10.616;2022-09-12T13:50:24;96270.84;;;24.77;43.33
64228;BME280;50546;49.146;10.616;2022-09-12T13:53:02;96267.22;;;24.42;45.45
64228;BME280;50546;49.146;10.616;2022-09-12T13:55:35;96267.47;;;24.58;44.88
64228;BME280;50546;49.146;10.616;2022-09-12T13:58:03;96266.28;;;24.59;44.80
64228;BME280;50546;49.146;10.616;2022-09-12T14:00:31;96261.25;;;24.02;45.96
64228;BME280;50546;49.146;10.616;2022-09-12T14:02:59;96255.84;;;23.88;45.86
64228;BME280;50546;49.146;10.616;2022-09-12T14:05:46;96256.13;;;24.04;46.17
64228;BME280;50546;49.146;10.616;2022-09-12T14:08:19;96255.72;;;24.06;46.16
64228;BME280;50546;49.146;10.616;2022-09-12T14:10:47;96253.97;;;24.26;45.47
64228;BME280;50546;49.146;10.616;2022-09-12T14:13:23;96254.25;;;25.18;43.49
64228;BME280;50546;49.146;10.616;2022-09-12T14:15:51;96231.94;;;27.04;41.77
64228;BME280;50546;49.146;10.616;2022-09-12T14:18:28;96240.06;;;27.87;37.38
64228;BME280;50546;49.146;10.616;2022-09-12T14:21:08;96233.84;;;28.77;36.20
64228;BME280;50546;49.146;10.616;2022-09-12T14:23:38;96232.88;;;28.84;33.45
64228;BME280;50546;49.146;10.616;2022-09-12T14:26:09;96223.50;;;30.73;32.10
64228;BME280;50546;49.146;10.616;2022-09-12T14:28:39;96220.50;;;30.67;31.21
64228;BME280;50546;49.146;10.616;2022-09-12T14:31:29;96229.63;;;28.73;32.62
64228;BME280;50546;49.146;10.616;2022-09-12T14:34:14;96235.88;;;28.61;33.20
64228;BME280;50546;49.146;10.616;2022-09-12T14:36:48;96223.59;;;27.64;33.15
64228;BME280;50546;49.146;10.616;2022-09-12T14:39:39;96229.22;;;26.60;35.30
64228;BME280;50546;49.146;10.616;2022-09-12T14:42:06;96219.31;;;26.16;35.96
64228;BME280;50546;49.146;10.616;2022-09-12T14:44:36;96221.53;;;25.47;36.47
64228;BME280;50546;49.146;10.616;2022-09-12T14:47:19;96222.53;;;24.99;37.38
64228;BME280;50546;49.146;10.616;2022-09-12T14:49:47;96219.34;;;25.01;38.66